Time;durP1;ratioP1;P1;durP2;ratioP2;P2;SDS_P1;SDS_P2;PMS_P1;PMS_P2;Temp;Humidity;BMP_temperature;BMP_pressure;BME280_temperature;BME280_humidity;BME280_pressure;Samples;Min_cycle;Max_cycle;Signal;HPM_P1;HPM_P2
2020/12/02 00:01:01;;;;;;;12.58;8.45;;;;;;;0.54;71.52;102027.64;1732810;81;21446;-77
2020/12/02 00:03:34;;;;;;;13.60;8.38;;;;;;;0.49;71.67;102019.03;1738375;80;20996;-76
2020/12/02 00:06:02;;;;;;;11.12;7.37;;;;;;;0.49;71.54;102024.59;1748753;78;20974;-77
2020/12/02 00:08:45;;;;;;;13.18;8.45;;;;;;;0.46;71.77;102024.16;1715642;82;20968;-77
2020/12/02 00:11:14;;;;;;;13.62;7.30;;;;;;;0.47;71.94;102028.89;1697700;84;21025;-76
2020/12/02 00:13:45;;;;;;;10.72;7.62;;;;;;;0.46;72.11;102029.32;1696718;83;21047;-77
2020/12/02 00:16:16;;;;;;;9.90;6.70;;;;;;;0.48;71.97;102028.05;1715669;82;21241;-75
2020/12/02 00:18:44;;;;;;;11.78;7.15;;;;;;;0.48;71.79;102031.92;1671501;84;20982;-77
2020/12/02 00:21:12;;;;;;;12.80;7.60;;;;;;;0.43;71.82;102031.90;1704559;83;20988;-75
2020/12/02 00:23:40;;;;;;;12.10;8.15;;;;;;;0.42;71.98;102032.73;1715664;82;20972;-77
2020/12/02 00:26:08;;;;;;;14.40;8.05;;;;;;;0.45;72.08;102036.64;1671500;83;21041;-76
2020/12/02 00:28:36;;;;;;;9.63;6.97;;;;;;;0.47;71.98;102031.47;1696747;83;21949;-75
2020/12/02 00:31:04;;;;;;;9.25;5.83;;;;;;;0.48;71.81;102034.06;1715690;82;20976;-76
2020/12/02 00:33:32;;;;;;;15.15;9.75;;;;;;;0.47;71.73;102031.47;1671590;84;20970;-76
2020/12/02 00:36:00;;;;;;;11.12;7.55;;;;;;;0.45;71.71;102022.45;1704406;83;21432;-77
2020/12/02 00:38:28;;;;;;;16.52;9.83;;;;;;;0.46;71.78;102029.76;1715584;82;21023;-76
2020/12/02 00:40:56;;;;;;;10.65;6.72;;;;;;;0.47;71.85;102035.34;1671402;84;21900;-77
2020/12/02 00:43:27;;;;;;;13.68;7.83;;;;;;;0.49;71.71;102027.17;1696558;83;20976;-75
2020/12/02 00:46:00;;;;;;;8.25;5.40;;;;;;;0.47;71.92;102023.33;1715499;82;20976;-75
2020/12/02 00:48:30;;;;;;;8.10;5.10;;;;;;;0.47;71.88;102025.91;1672129;84;21053;-75
2020/12/02 00:50:58;;;;;;;12.93;6.92;;;;;;;0.45;71.76;102025.03;1705047;83;21039;-75
2020/12/02 00:53:29;;;;;;;8.58;5.75;;;;;;;0.44;71.55;102025.02;1715584;82;22124;-76
2020/12/02 00:56:00;;;;;;;6.90;4.97;;;;;;;0.40;71.77;102018.56;1671800;84;20982;-76
2020/12/02 00:59:00;;;;;;;9.15;5.78;;;;;;;0.38;71.78;102020.27;1704356;83;21009;-76
2020/12/02 01:01:42;;;;;;;10.60;6.30;;;;;;;0.38;72.03;102011.23;1715545;82;21051;-75
2020/12/02 01:04:16;;;;;;;13.70;8.33;;;;;;;0.44;72.03;102012.97;1671370;84;20998;-75
2020/12/02 01:06:46;;;;;;;;;;;;;;;0.48;72.05;102009.55;1701690;83;21405;-75
2020/12/02 01:09:15;;;;;;;12.65;8.18;;;;;;;0.53;71.97;102006.55;1691328;81;20156;-76
2020/12/02 01:11:46;;;;;;;11.57;6.87;;;;;;;0.49;71.92;102003.55;1725290;83;20939;-77
2020/12/02 01:14:16;;;;;;;11.18;6.83;;;;;;;0.50;71.91;102000.53;1698481;83;20958;-77
2020/12/02 01:16:50;;;;;;;9.83;6.15;;;;;;;0.47;71.92;102006.55;1698478;83;20958;-77
2020/12/02 01:19:23;;;;;;;9.60;6.10;;;;;;;0.48;71.93;102004.39;1698518;83;21984;-77
2020/12/02 01:22:29;;;;;;;11.45;6.53;;;;;;;0.49;71.91;102002.26;1665611;84;21078;-77
2020/12/02 01:25:17;;;;;;;8.80;5.67;;;;;;;0.50;71.85;102005.26;1687629;84;20970;-77
2020/12/02 01:27:55;;;;;;;10.35;6.80;;;;;;;0.51;71.86;102003.53;1689016;83;21002;-77
2020/12/02 01:32:13;;;;;;;10.50;6.90;;;;;;;0.53;72.12;101996.22;1816627;76;22183;-77
2020/12/02 01:34:47;;;;;;;9.80;7.47;;;;;;;0.48;72.31;102003.09;1755816;80;21323;-77
2020/12/02 01:37:28;;;;;;;;;;;;;;;0.50;72.50;101991.06;1735564;80;21398;-76
2020/12/02 01:40:18;;;;;;;11.63;6.42;;;;;;;0.53;72.65;101996.66;1755751;80;20146;-77
2020/12/02 01:42:51;;;;;;;10.35;7.70;;;;;;;0.53;72.83;101988.91;1755727;80;20938;-77
2020/12/02 01:45:24;;;;;;;14.60;8.25;;;;;;;0.46;73.16;101999.64;1755927;80;21396;-78
2020/12/02 01:48:10;;;;;;;12.40;7.90;;;;;;;0.42;73.51;101996.61;1756190;80;20998;-78
2020/12/02 01:51:01;;;;;;;13.45;7.53;;;;;;;0.45;73.87;102001.80;1784413;80;22107;-78
2020/12/02 01:53:41;;;;;;;17.82;9.35;;;;;;;0.48;74.02;101999.66;1755775;80;20970;-77
2020/12/02 01:56:30;;;;;;;12.70;8.35;;;;;;;0.52;74.22;101997.53;1755813;80;20950;-77
2020/12/02 01:59:29;;;;;;;12.88;7.60;;;;;;;0.57;74.20;101994.53;1755640;80;20990;-76
2020/12/02 02:02:06;;;;;;;11.80;7.85;;;;;;;0.56;74.41;101996.25;1755807;80;20978;-76
2020/12/02 02:04:48;;;;;;;11.93;8.93;;;;;;;0.53;74.47;101992.35;1755655;80;21025;-76
2020/12/02 02:07:23;;;;;;;8.58;7.08;;;;;;;0.52;74.55;101996.23;1707416;80;21513;-77
2020/12/02 02:09:57;;;;;;;10.80;7.67;;;;;;;0.52;74.48;101995.80;1784235;80;20966;-76
2020/12/02 02:12:44;;;;;;;9.50;6.00;;;;;;;0.49;74.57;101995.80;1743883;77;20978;-76
2020/12/02 02:15:47;;;;;;;9.88;5.72;;;;;;;0.49;74.51;101998.38;1644465;85;21123;-75
2020/12/02 02:18:25;;;;;;;13.08;10.25;;;;;;;0.49;74.58;101999.67;1642976;85;21328;-75
2020/12/02 02:21:02;;;;;;;16.87;10.03;;;;;;;0.48;74.66;101994.50;1644585;85;21052;-75
2020/12/02 02:23:30;;;;;;;15.23;10.08;;;;;;;0.44;74.82;101991.03;1644561;85;21080;-75
2020/12/02 02:26:07;;;;;;;16.52;8.48;;;;;;;0.48;74.96;101994.50;1644446;85;20981;-74
2020/12/02 02:28:36;;;;;;;12.95;9.30;;;;;;;0.51;74.70;101997.08;1644555;85;20997;-76
2020/12/02 02:31:05;;;;;;;12.98;7.83;;;;;;;0.48;74.75;101991.48;1644598;85;22137;-76
2020/12/02 02:33:33;;;;;;;14.45;8.43;;;;;;;0.46;74.61;102002.66;1623055;84;21040;-76
2020/12/02 02:36:02;;;;;;;14.25;8.95;;;;;;;0.37;74.74;101995.30;1644488;85;21424;-76
2020/12/02 02:38:30;;;;;;;9.10;6.97;;;;;;;0.33;74.92;102000.01;1623002;85;21036;-76
2020/12/02 02:40:58;;;;;;;12.28;8.95;;;;;;;0.31;75.22;102003.44;1644449;85;21363;-75
2020/12/02 02:43:26;;;;;;;13.08;8.50;;;;;;;0.29;75.25;102002.17;1644050;85;21001;-76
2020/12/02 02:45:57;;;;;;;11.63;9.85;;;;;;;0.32;75.34;102008.63;1643888;85;21005;-76
2020/12/02 02:48:25;;;;;;;12.20;8.93;;;;;;;0.37;75.53;102011.22;1643930;85;20981;-76
2020/12/02 02:50:53;;;;;;;12.18;9.33;;;;;;;0.40;75.36;102004.37;1643939;85;21513;-76
2020/12/02 02:53:22;;;;;;;12.23;7.83;;;;;;;0.45;75.53;102011.27;1643935;85;21486;-76
2020/12/02 02:55:51;;;;;;;12.35;8.58;;;;;;;0.53;75.52;102013.44;1643935;84;21176;-76
2020/12/02 02:58:18;;;;;;;13.50;9.70;;;;;;;0.55;75.03;102012.58;1643932;85;20959;-76
2020/12/02 03:00:46;;;;;;;18.20;12.95;;;;;;;0.53;74.58;102013.00;1644022;85;20981;-77
2020/12/02 03:03:16;;;;;;;17.95;11.88;;;;;;;0.48;74.37;102017.29;1644112;85;21624;-76
2020/12/02 03:05:44;;;;;;;14.85;10.40;;;;;;;0.44;74.51;102016.84;1663207;84;20985;-76
2020/12/02 03:08:13;;;;;;;15.48;10.30;;;;;;;0.40;74.49;102016.37;1643956;85;22145;-75
2020/12/02 03:10:44;;;;;;;16.57;9.90;;;;;;;0.35;74.36;102022.81;1614911;87;21025;-76
2020/12/02 03:13:40;;;;;;;13.22;10.05;;;;;;;0.30;74.48;102017.21;1577645;89;21058;-75
2020/12/02 03:16:49;;;;;;;13.00;9.35;;;;;;;0.25;74.56;102021.06;1616602;82;21102;-76
2020/12/02 03:19:24;;;;;;;15.78;11.28;;;;;;;0.22;74.77;102030.48;1669844;84;21116;-77
2020/12/02 03:21:55;;;;;;;16.70;10.53;;;;;;;0.20;74.87;102029.18;1669915;83;21061;-78
2020/12/02 03:24:24;;;;;;;15.10;11.48;;;;;;;0.17;75.12;102034.33;1669963;84;20998;-78
2020/12/02 03:26:52;;;;;;;14.75;11.05;;;;;;;0.16;75.20;102030.05;1642410;84;21597;-79
2020/12/02 03:29:22;;;;;;;16.90;12.13;;;;;;;0.16;75.17;102019.73;1669783;84;21058;-79
2020/12/02 03:31:50;;;;;;;13.30;10.18;;;;;;;0.15;75.21;102024.00;1668792;84;21586;-79
2020/12/02 03:34:19;;;;;;;18.55;12.18;;;;;;;0.15;75.05;102030.45;1668834;84;21176;-77
2020/12/02 03:36:47;;;;;;;20.00;12.53;;;;;;;0.13;75.20;102030.86;1693316;83;20974;-78
2020/12/02 03:39:16;;;;;;;19.60;12.25;;;;;;;0.12;75.24;102023.99;1669927;84;20998;-79
2020/12/02 03:41:44;;;;;;;22.22;12.13;;;;;;;0.13;75.25;102032.58;1693219;83;20950;-78
2020/12/02 03:44:11;;;;;;;21.17;13.50;;;;;;;0.13;75.29;102035.16;1669933;84;21029;-78
2020/12/02 03:46:39;;;;;;;22.42;14.50;;;;;;;0.13;75.41;102039.89;1669948;84;21131;-77
2020/12/02 03:49:07;;;;;;;20.27;11.70;;;;;;;0.17;75.50;102035.62;1669765;84;20958;-76
2020/12/02 03:51:35;;;;;;;19.05;13.03;;;;;;;0.18;75.50;102039.95;1669870;84;21413;-78
2020/12/02 03:54:04;;;;;;;16.77;11.88;;;;;;;0.19;75.27;102033.92;1669916;84;21021;-76
2020/12/02 03:56:33;;;;;;;17.40;12.18;;;;;;;0.21;75.47;102042.53;1670038;84;21583;-76
2020/12/02 03:59:01;;;;;;;15.50;10.58;;;;;;;0.19;75.40;102033.92;1670034;84;21228;-75
2020/12/02 04:01:29;;;;;;;18.23;11.40;;;;;;;0.17;75.47;102036.91;1668578;84;21114;-77
2020/12/02 04:03:57;;;;;;;15.68;11.68;;;;;;;0.12;75.62;102039.47;1669840;84;20970;-76
2020/12/02 04:06:26;;;;;;;20.30;12.70;;;;;;;0.08;75.76;102035.14;1654965;85;21035;-78
2020/12/02 04:08:53;;;;;;;18.75;12.18;;;;;;;0.07;75.94;102037.30;1658574;85;20975;-78
2020/12/02 04:11:22;;;;;;;19.12;11.50;;;;;;;0.08;76.07;102039.44;1659863;85;22272;-78
2020/12/02 04:13:50;;;;;;;19.62;13.35;;;;;;;0.10;76.05;102039.02;1659920;85;20987;-76
2020/12/02 04:16:18;;;;;;;19.77;13.35;;;;;;;0.10;76.13;102045.04;1656971;85;20936;-77
2020/12/02 04:18:46;;;;;;;20.30;13.93;;;;;;;0.12;76.29;102043.34;1684405;79;21405;-79
2020/12/02 04:21:24;;;;;;;20.52;13.88;;;;;;;0.14;76.23;102042.92;1755559;81;20962;-77
2020/12/02 04:23:56;;;;;;;20.82;13.95;;;;;;;0.15;76.14;102039.47;1755374;81;21494;-79
2020/12/02 04:26:24;;;;;;;26.75;15.05;;;;;;;0.17;76.13;102041.64;1730116;81;21049;-77
2020/12/02 04:28:52;;;;;;;22.82;15.50;;;;;;;0.16;76.17;102042.51;1755293;81;21021;-78
2020/12/02 04:31:21;;;;;;;25.55;15.70;;;;;;;0.19;76.11;102037.35;1755188;81;21388;-77
2020/12/02 04:33:49;;;;;;;27.65;18.75;;;;;;;0.20;76.13;102040.78;1730144;81;20966;-78
2020/12/02 04:36:17;;;;;;;23.98;16.87;;;;;;;0.20;76.14;102036.92;1730153;81;21161;-78
2020/12/02 04:38:45;;;;;;;24.80;17.45;;;;;;;0.21;76.03;102043.82;1755206;81;20996;-76
2020/12/02 04:41:16;;;;;;;24.15;16.87;;;;;;;0.20;76.01;102045.55;1755268;81;20934;-77
2020/12/02 04:43:47;;;;;;;28.90;15.85;;;;;;;0.22;75.86;102053.70;1755201;81;21041;-78
2020/12/02 04:46:23;;;;;;;32.08;20.72;;;;;;;0.19;75.87;102056.70;1706754;81;20946;-78
2020/12/02 04:48:54;;;;;;;31.42;19.50;;;;;;;0.17;75.74;102062.27;1730259;81;21051;-79
2020/12/02 04:51:25;;;;;;;33.30;22.48;;;;;;;0.13;75.85;102064.39;1729785;81;21459;-79
2020/12/02 04:53:56;;;;;;;38.08;24.23;;;;;;;0.13;75.96;102060.52;1730255;81;21057;-78
2020/12/02 04:56:25;;;;;;;43.02;23.87;;;;;;;0.14;75.94;102060.98;1755387;81;21022;-77
2020/12/02 04:58:55;;;;;;;31.57;20.72;;;;;;;0.15;75.98;102069.14;1755593;81;20982;-79
2020/12/02 05:01:32;;;;;;;33.73;22.87;;;;;;;0.17;75.62;102072.59;1755351;81;22307;-80
2020/12/02 05:04:07;;;;;;;33.33;17.90;;;;;;;0.13;75.52;102069.55;1730014;81;20978;-78
2020/12/02 05:06:38;;;;;;;37.80;18.87;;;;;;;0.12;75.46;102073.00;1755202;81;21037;-79
2020/12/02 05:09:18;;;;;;;31.05;19.25;;;;;;;0.10;75.47;102071.27;1730423;81;20966;-78
2020/12/02 05:12:04;;;;;;;33.85;20.10;;;;;;;0.09;75.42;102066.94;1740236;82;20973;-80
2020/12/02 05:14:40;;;;;;;33.90;18.62;;;;;;;0.09;75.57;102078.15;1752616;81;21068;-79
2020/12/02 05:17:26;;;;;;;29.95;18.73;;;;;;;0.11;75.29;102085.47;1705085;82;21097;-80
2020/12/02 05:20:16;;;;;;;31.37;18.37;;;;;;;0.09;75.17;102078.55;1739088;81;21036;-80
2020/12/02 05:22:47;;;;;;;31.23;18.60;;;;;;;0.05;75.32;102084.13;1665901;84;20991;-78
2020/12/02 05:25:23;;;;;;;29.98;17.87;;;;;;;0.04;75.42;102081.53;1715588;82;21601;-78
2020/12/02 05:28:28;;;;;;;30.20;18.27;;;;;;;0.05;75.44;102082.84;1847905;76;22729;-78
2020/12/02 05:31:10;;;;;;;35.38;16.95;;;;;;;-0.02;75.19;102094.83;1786329;79;21096;-76
2020/12/02 05:33:38;;;;;;;36.53;19.95;;;;;;;-0.05;74.92;102090.92;1784804;79;21160;-76
2020/12/02 05:36:15;;;;;;;35.65;18.80;;;;;;;-0.12;74.93;102094.30;1784801;79;20918;-78
2020/12/02 05:39:19;;;;;;;34.95;17.12;;;;;;;-0.10;74.76;102104.21;1784877;79;21412;-78
2020/12/02 05:41:51;;;;;;;34.30;18.85;;;;;;;-0.14;74.54;102098.58;1786271;79;20971;-78
2020/12/02 05:44:27;;;;;;;39.55;19.95;;;;;;;-0.16;74.56;102102.86;1785388;79;20959;-78
2020/12/02 05:46:59;;;;;;;36.80;19.87;;;;;;;-0.13;74.63;102105.48;1786430;79;21954;-79
2020/12/02 05:49:47;;;;;;;47.70;23.65;;;;;;;-0.11;74.75;102111.52;1787352;79;21599;-79
2020/12/02 05:52:24;;;;;;;43.55;22.22;;;;;;;-0.06;74.77;102119.30;1786186;79;20967;-77
2020/12/02 05:55:04;;;;;;;55.12;26.60;;;;;;;-0.05;74.77;102119.28;1785324;79;21495;-86
2020/12/02 05:57:33;;;;;;;41.00;23.92;;;;;;;-0.04;74.76;102122.31;1787094;79;20977;-85
2020/12/02 06:00:03;;;;;;;36.10;19.10;;;;;;;-0.06;74.79;102120.58;1761378;79;22089;-86
2020/12/02 06:02:31;;;;;;;31.05;19.20;;;;;;;-0.09;74.56;102118.84;1786414;79;21042;-87
2020/12/02 06:05:00;;;;;;;37.70;20.55;;;;;;;-0.07;74.43;102117.55;1759918;77;21372;-86
2020/12/02 06:07:28;;;;;;;31.12;17.62;;;;;;;-0.10;74.31;102129.99;1786175;79;20943;-83
2020/12/02 06:09:56;;;;;;;35.70;18.80;;;;;;;-0.11;74.06;102130.86;1736296;79;20946;-83
2020/12/02 06:12:28;;;;;;;37.67;18.17;;;;;;;-0.13;74.12;102133.84;1786553;77;21594;-84
2020/12/02 06:14:56;;;;;;;32.63;18.92;;;;;;;-0.13;74.21;102139.00;1784648;79;20947;-84
2020/12/02 06:17:29;;;;;;;41.85;22.07;;;;;;;-0.10;74.13;102136.88;1786307;79;20970;-82
2020/12/02 06:19:57;;;;;;;34.65;17.20;;;;;;;-0.07;74.21;102136.48;1784946;79;21420;-83
2020/12/02 06:22:49;;;;;;;34.38;19.37;;;;;;;-0.02;73.90;102137.38;1785031;79;20927;-83
2020/12/02 06:25:48;;;;;;;38.30;20.88;;;;;;;-0.02;73.93;102129.64;1782919;75;21928;-81
2020/12/02 06:28:31;;;;;;;44.15;21.50;;;;;;;0.00;73.93;102134.82;1756694;80;21069;-80
2020/12/02 06:31:25;;;;;;;48.58;23.57;;;;;;;0.02;74.03;102129.66;1782454;78;21022;-78
2020/12/02 06:33:53;;;;;;;31.95;16.62;;;;;;;0.02;74.05;102139.97;1782688;80;20947;-80
2020/12/02 06:36:32;;;;;;;30.23;17.15;;;;;;;0.01;73.71;102141.69;1782512;80;20998;-80
2020/12/02 06:39:18;;;;;;;30.88;17.12;;;;;;;-0.03;73.94;102156.27;1780952;80;20969;-81
2020/12/02 06:41:46;;;;;;;28.67;15.18;;;;;;;-0.02;73.92;102142.53;1773907;80;21041;-81
2020/12/02 06:44:19;;;;;;;33.78;16.55;;;;;;;-0.02;73.97;102147.69;1779771;80;20974;-81
2020/12/02 06:47:17;;;;;;;32.45;16.62;;;;;;;0.01;73.92;102145.56;1779702;80;21057;-81
2020/12/02 06:49:45;;;;;;;37.80;19.50;;;;;;;-0.03;73.88;102143.37;1780053;80;20962;-79
2020/12/02 06:52:32;;;;;;;39.35;21.07;;;;;;;-0.07;74.12;102150.66;1778737;80;20965;-80
2020/12/02 06:55:05;;;;;;;41.18;20.20;;;;;;;-0.07;74.28;102160.98;1778302;80;21064;-80
2020/12/02 06:57:33;;;;;;;45.60;23.70;;;;;;;-0.04;74.36;102162.28;1775200;80;20966;-81
2020/12/02 07:00:06;;;;;;;36.83;21.35;;;;;;;0.03;74.33;102161.05;1778064;80;21339;-80
2020/12/02 07:02:57;;;;;;;42.08;20.08;;;;;;;0.06;74.21;102158.05;1778604;80;21451;-80
2020/12/02 07:05:36;;;;;;;32.93;16.27;;;;;;;0.12;73.83;102159.84;1727132;82;21211;-82
2020/12/02 07:08:24;;;;;;;28.30;18.40;;;;;;;0.12;73.56;102166.29;1750935;82;21156;-81
2020/12/02 07:11:07;;;;;;;30.57;18.35;;;;;;;0.11;73.38;102169.70;1778475;80;21364;-81
2020/12/02 07:13:39;;;;;;;36.40;19.80;;;;;;;0.11;73.35;102164.55;1778211;80;21100;-80
2020/12/02 07:16:22;;;;;;;27.93;15.83;;;;;;;0.11;73.31;102157.69;1778235;80;21005;-81
2020/12/02 07:19:06;;;;;;;26.80;15.55;;;;;;;0.13;73.03;102176.59;1751083;81;21378;-79
2020/12/02 07:21:49;;;;;;;34.48;19.87;;;;;;;0.12;73.04;102172.30;1778545;80;20978;-83
2020/12/02 07:24:24;;;;;;;27.60;15.30;;;;;;;0.10;73.21;102159.81;1778404;80;21018;-80
2020/12/02 07:26:52;;;;;;;31.37;18.30;;;;;;;0.12;72.90;102164.56;1752323;81;20978;-80
2020/12/02 07:29:27;;;;;;;31.40;18.98;;;;;;;0.13;73.03;102162.41;1777571;77;20974;-83
2020/12/02 07:32:00;;;;;;;30.82;17.95;;;;;;;0.17;73.14;102172.34;1732906;81;21096;-82
2020/12/02 07:34:28;;;;;;;33.65;18.48;;;;;;;0.18;73.31;102172.36;1767718;78;20985;-83
2020/12/02 07:36:59;;;;;;;26.35;16.27;;;;;;;0.22;73.50;102170.64;1737103;81;21004;-82
2020/12/02 07:39:27;;;;;;;30.27;17.42;;;;;;;0.20;73.56;102165.50;1807854;78;21009;-83
2020/12/02 07:42:19;;;;;;;23.90;13.83;;;;;;;0.18;73.52;102163.33;1805062;78;21052;-89
2020/12/02 07:45:12;;;;;;;23.80;15.55;;;;;;;0.17;73.57;102166.74;1797095;78;21891;-78
2020/12/02 07:47:51;;;;;;;27.05;15.58;;;;;;;0.17;73.63;102170.61;1793843;78;20938;-78
2020/12/02 07:50:32;;;;;;;25.60;16.02;;;;;;;0.15;73.78;102177.47;1832491;77;20970;-79
2020/12/02 07:53:39;;;;;;;24.52;16.00;;;;;;;0.15;73.66;102172.75;1796726;78;20950;-79
2020/12/02 07:56:14;;;;;;;24.95;14.95;;;;;;;0.16;73.52;102180.51;1805175;78;21569;-79
2020/12/02 07:58:43;;;;;;;29.67;16.77;;;;;;;0.19;73.54;102183.53;1792087;78;20995;-78
2020/12/02 08:01:38;;;;;;;34.78;17.95;;;;;;;0.19;73.46;102178.38;1805035;78;20950;-79
2020/12/02 08:04:32;;;;;;;36.05;19.40;;;;;;;0.24;73.46;102184.42;1797072;77;21074;-80
2020/12/02 08:07:10;;;;;;;34.27;19.55;;;;;;;0.25;73.42;102178.43;1804919;78;20934;-80
2020/12/02 08:09:44;;;;;;;29.87;16.37;;;;;;;0.31;73.39;102177.20;1796887;78;20938;-80
2020/12/02 08:12:26;;;;;;;33.00;18.48;;;;;;;0.35;73.21;102179.35;1804921;77;21464;-81
2020/12/02 08:15:09;;;;;;;35.15;20.70;;;;;;;0.34;73.10;102172.05;1796652;78;20966;-80
2020/12/02 08:17:39;;;;;;;34.03;18.87;;;;;;;0.33;73.08;102175.89;1804980;78;20998;-79
2020/12/02 08:20:31;;;;;;;39.48;22.93;;;;;;;0.30;73.12;102178.03;1796916;78;21463;-79
2020/12/02 08:23:13;;;;;;;35.05;20.23;;;;;;;0.33;73.11;102176.75;1804885;78;21091;-81
2020/12/02 08:26:11;;;;;;;32.85;18.98;;;;;;;0.36;73.18;102174.22;1785653;78;22216;-81
2020/12/02 08:28:40;;;;;;;35.70;19.52;;;;;;;0.45;72.88;102171.27;1796776;78;21566;-81
2020/12/02 08:31:25;;;;;;;34.27;18.77;;;;;;;0.48;72.77;102173.86;1804814;78;21085;-81
2020/12/02 08:34:19;;;;;;;34.53;21.07;;;;;;;0.47;72.53;102169.53;1698797;78;20995;-83
2020/12/02 08:36:51;;;;;;;34.45;19.77;;;;;;;0.48;72.45;102166.97;1677212;83;21031;-86
2020/12/02 08:39:30;;;;;;;32.63;18.73;;;;;;;0.48;72.42;102159.67;1696458;83;21936;-82
2020/12/02 08:41:59;;;;;;;44.00;21.00;;;;;;;0.50;72.52;102159.25;1696836;83;21026;-84
2020/12/02 08:44:28;;;;;;;30.62;19.50;;;;;;;0.54;72.23;102154.55;1696445;83;21447;-84
2020/12/02 08:47:07;;;;;;;32.73;15.75;;;;;;;0.53;72.25;102155.39;1696347;83;21021;-84
2020/12/02 08:49:35;;;;;;;35.40;18.65;;;;;;;0.49;72.23;102149.36;1696570;83;20994;-80
2020/12/02 08:52:04;;;;;;;28.55;17.02;;;;;;;0.48;72.26;102144.19;1696091;83;21210;-80
2020/12/02 08:54:32;;;;;;;38.40;21.05;;;;;;;0.48;72.44;102154.50;1695930;83;21041;-81
2020/12/02 08:57:02;;;;;;;38.80;22.55;;;;;;;0.44;72.46;102145.01;1696180;83;20986;-81
2020/12/02 08:59:30;;;;;;;44.80;22.30;;;;;;;0.45;72.60;102150.62;1696014;83;20970;-82
2020/12/02 09:02:06;;;;;;;38.83;19.42;;;;;;;0.44;72.58;102151.03;1696054;83;21033;-84
2020/12/02 09:04:34;;;;;;;39.95;20.97;;;;;;;0.42;72.71;102156.61;1695850;83;22152;-81
2020/12/02 09:07:03;;;;;;;36.17;20.45;;;;;;;0.40;72.51;102154.03;1695582;84;21414;-83
2020/12/02 09:09:31;;;;;;;35.28;21.12;;;;;;;0.39;72.43;102153.58;1696721;83;21487;-82
2020/12/02 09:12:00;;;;;;;36.23;18.75;;;;;;;0.38;72.57;102152.30;1696617;83;21026;-84
2020/12/02 09:14:28;;;;;;;36.70;21.42;;;;;;;0.40;72.72;102148.87;1696100;83;21033;-83
2020/12/02 09:16:57;;;;;;;33.48;19.42;;;;;;;0.44;72.66;102147.16;1696612;83;21061;-84
2020/12/02 09:19:26;;;;;;;42.20;20.92;;;;;;;0.52;72.49;102143.35;1697809;83;21077;-85
2020/12/02 09:21:54;;;;;;;39.03;21.82;;;;;;;0.57;72.42;102146.81;1698883;83;20966;-86
2020/12/02 09:24:22;;;;;;;37.48;20.23;;;;;;;0.61;72.38;102136.95;1698255;83;20978;-83
2020/12/02 09:26:51;;;;;;;41.75;19.25;;;;;;;0.68;72.05;102134.83;1697509;83;20966;-81
2020/12/02 09:29:19;;;;;;;33.48;19.90;;;;;;;0.74;72.00;102132.29;1696669;83;21633;-78
2020/12/02 09:31:47;;;;;;;33.18;18.67;;;;;;;0.77;71.91;102135.31;1696735;83;21180;-81
2020/12/02 09:34:17;;;;;;;35.98;19.05;;;;;;;0.81;71.78;102128.02;1725610;82;21081;-79
2020/12/02 09:36:47;;;;;;;34.98;20.02;;;;;;;0.85;71.58;102127.19;1696881;80;21025;-79
2020/12/02 09:39:16;;;;;;;39.33;22.67;;;;;;;0.85;71.55;102125.03;1692803;83;20986;-79
2020/12/02 09:42:25;;;;;;;32.55;18.52;;;;;;;0.86;71.56;102121.14;1692517;83;21971;-78
2020/12/02 09:45:08;;;;;;;44.42;22.62;;;;;;;0.86;71.55;102120.29;1692328;83;20975;-79
2020/12/02 09:47:38;;;;;;;45.58;24.23;;;;;;;0.89;71.59;102126.75;1718088;83;20999;-79
2020/12/02 09:50:08;;;;;;;44.67;24.37;;;;;;;0.90;71.50;102115.58;1693530;83;21054;-81
2020/12/02 09:52:47;;;;;;;36.90;23.47;;;;;;;0.87;71.64;102120.30;1694196;83;20975;-79
2020/12/02 09:55:23;;;;;;;44.45;21.57;;;;;;;0.90;71.69;102115.58;1693392;83;21417;-79
2020/12/02 09:57:52;;;;;;;39.48;21.52;;;;;;;0.89;71.78;102125.45;1693680;83;21015;-81
2020/12/02 10:00:22;;;;;;;40.75;21.45;;;;;;;0.90;71.62;102119.45;1692643;83;20970;-79
2020/12/02 10:03:23;;;;;;;38.35;23.32;;;;;;;0.89;71.68;102116.02;1669998;83;21397;-79
2020/12/02 10:06:37;;;;;;;43.68;24.40;;;;;;;0.93;71.81;102119.45;1691534;83;20946;-81
2020/12/02 10:09:50;;;;;;;50.05;27.58;;;;;;;0.93;71.88;102118.16;1691447;83;22023;-81
2020/12/02 10:12:33;;;;;;;55.23;29.02;;;;;;;0.95;72.07;102117.73;1659106;83;21006;-79
2020/12/02 10:15:26;;;;;;;50.55;27.45;;;;;;;1.01;72.23;102117.34;1691230;83;21523;-81
2020/12/02 10:18:06;;;;;;;46.25;25.35;;;;;;;1.09;72.13;102126.42;1691519;83;21551;-80
2020/12/02 10:20:43;;;;;;;58.08;29.00;;;;;;;1.14;72.12;102123.85;1691562;83;21045;-81
2020/12/02 10:23:29;;;;;;;53.60;26.68;;;;;;;1.17;72.14;102123.85;1691464;83;21402;-80
2020/12/02 10:26:33;;;;;;;58.90;28.67;;;;;;;1.22;72.08;102125.61;1691421;83;21447;-80
2020/12/02 10:29:12;;;;;;;51.00;28.10;;;;;;;1.29;72.00;102129.48;1663074;85;21546;-81
2020/12/02 10:31:51;;;;;;;53.02;26.90;;;;;;;1.30;71.82;102128.20;1663130;85;21570;-80
2020/12/02 10:34:27;;;;;;;56.68;25.40;;;;;;;1.31;71.74;102142.86;1648927;85;21088;-79
2020/12/02 10:37:17;;;;;;;54.35;26.97;;;;;;;1.34;71.63;102135.55;1852567;77;22421;-81
2020/12/02 10:39:45;;;;;;;57.13;29.67;;;;;;;1.29;71.65;102135.94;1786964;78;20911;-78
2020/12/02 10:42:53;;;;;;;55.63;28.02;;;;;;;1.32;71.58;102130.80;1787377;79;21012;-79
2020/12/02 10:45:23;;;;;;;50.55;25.12;;;;;;;1.31;71.62;102129.94;1761762;79;21483;-81
2020/12/02 10:48:42;;;;;;;47.95;26.70;;;;;;;1.33;71.55;102129.92;1762135;79;21452;-79
2020/12/02 10:51:12;;;;;;;49.80;25.15;;;;;;;1.27;71.48;102116.57;1787286;77;20962;-79
2020/12/02 10:53:43;;;;;;;49.40;26.85;;;;;;;1.26;71.73;102126.89;1787268;79;21349;-78
2020/12/02 10:56:13;;;;;;;47.80;26.93;;;;;;;1.21;71.42;102117.41;1815161;77;22221;-79
2020/12/02 10:58:42;;;;;;;45.75;24.92;;;;;;;1.17;71.72;102119.97;1761767;79;20990;-78
2020/12/02 11:01:10;;;;;;;46.77;24.40;;;;;;;1.18;71.83;102123.86;1786945;79;21010;-80
2020/12/02 11:03:40;;;;;;;52.43;26.23;;;;;;;1.19;71.68;102124.72;1761936;79;21037;-80
2020/12/02 11:06:19;;;;;;;45.40;24.15;;;;;;;1.15;71.82;102117.38;1787161;79;20966;-85
2020/12/02 11:09:18;;;;;;;49.35;27.05;;;;;;;1.16;71.97;102120.84;1784503;79;21024;-81
2020/12/02 11:12:13;;;;;;;48.05;26.23;;;;;;;1.17;72.03;102121.27;1786996;79;21538;-83
2020/12/02 11:14:58;;;;;;;56.28;25.52;;;;;;;1.19;71.94;102120.84;1801251;79;21487;-92
2020/12/02 11:17:32;;;;;;;;;;;;;;;1.18;71.98;102117.84;1792432;79;21045;-86
2020/12/02 11:20:19;;;;;;;51.92;26.42;;;;;;;1.18;71.91;102114.82;1815711;78;20134;-82
2020/12/02 11:23:10;;;;;;;53.58;26.30;;;;;;;1.14;72.04;102113.08;1787055;77;21076;-84
2020/12/02 11:26:02;;;;;;;48.17;26.30;;;;;;;1.14;72.15;102111.79;1786880;79;20997;-78
2020/12/02 11:28:30;;;;;;;51.10;25.75;;;;;;;1.16;72.27;102115.68;1786976;79;21006;-77
2020/12/02 11:31:03;;;;;;;51.95;24.05;;;;;;;1.20;72.44;102118.28;1786767;79;20907;-78
2020/12/02 11:33:54;;;;;;;49.23;26.85;;;;;;;1.21;72.30;102115.26;1786477;77;21002;-80
2020/12/02 11:36:53;;;;;;;50.85;26.37;;;;;;;1.22;72.38;102109.22;1787026;77;21134;-80
2020/12/02 11:39:46;;;;;;;52.38;24.70;;;;;;;1.21;72.24;102108.36;1779792;79;21185;-80
2020/12/02 11:42:44;;;;;;;53.90;27.95;;;;;;;1.17;72.28;102118.69;1785481;79;20919;-78
2020/12/02 11:45:35;;;;;;;47.58;27.20;;;;;;;1.16;72.39;102106.20;1785227;79;21376;-78
2020/12/02 11:48:26;;;;;;;47.95;23.35;;;;;;;1.19;72.43;102102.33;1784397;78;20911;-78
2020/12/02 11:51:14;;;;;;;48.63;25.70;;;;;;;1.17;72.34;102087.68;1784709;79;21890;-76
2020/12/02 11:53:56;;;;;;;47.58;27.62;;;;;;;1.12;72.56;102083.80;1784599;79;21520;-76
2020/12/02 11:56:30;;;;;;;62.15;26.93;;;;;;;1.08;72.81;102079.47;1784569;79;20943;-75
2020/12/02 11:59:04;;;;;;;41.50;20.68;;;;;;;1.11;72.87;102084.66;1784573;79;21053;-78
2020/12/02 12:01:57;;;;;;;40.25;22.10;;;;;;;1.12;72.88;102086.38;1785288;79;21050;-76
2020/12/02 12:05:07;;;;;;;48.78;24.05;;;;;;;1.11;72.57;102087.66;1784756;79;22430;-76